Main page
METAR-TAF:

METAR-TAF

Airports :

Pamplona, Spain

Pamplona Airport

latitude: 42-46N, longitude: 001-38W, elevation: 459 m

Current weather observation

The report was made 28 minutes ago, at 07:00 UTC
Calm wind
Temperature -1°C
Humidity 93%
Pressure 1017 hPa
Visibility 10 km or more
Few clouds at a height of 100 ft

METAR: LEPP 220700Z 00000KT 9999 FEW001 M01/M02 Q1017

Time: 08:28 (07:28 UTC)

Forecast

The report was made 5 hours and 28 minutes ago, at 02:00 UTC
Forecast valid from 22 at 03 UTC to 23 at 03 UTC
Wind 6 kt from the South/Southeast
Visibility 10 km or more
no clouds below 1500 m and no cumulonimbus

TAF: LEPP 220200Z 2203/2303 15006KT CAVOK TX16/2214Z TNM00/2205Z

Weather observations and forecasts of more than 4000 airports (METAR and TAF reports).

The available stations are represented by yellow and red dots on the map.

Hover mouse over dot to see the name of the station.

Then click to see weather observations and forecasts.

To change the map : click on the green buttons with a black cross to zoom in, on the green button with a dash to zoom out, or on the green arrows for adjacent maps.


METAR-TAF: